WADD/DPS METAR and TAF weather

Enter ICAO airport designator
Station Type Date Time Source
WADD METAR 2020/04/05 15:30 UTC NOAA

WADD 051530Z 08005KT 9999 FEW017 28/27 Q1011 NOSIG


Station Type Date Time Source
WADD Decoded METAR 2020/04/05 15:30 UTC NOAA

Station name not available
Apr 05, 2020 - 11:30 AM EDT / 2020.04.05 1530 UTC
Wind: from the E (080 degrees) at 6 MPH (5 KT):0
Visibility: greater than 7 mile(s):0
Sky conditions: mostly clear
Temperature: 82 F (28 C)
Dew Point: 80 F (27 C)
Relative Humidity: 94%
Pressure (altimeter): 29.85 in. Hg (1011 hPa)
ob: WADD 051530Z 08005KT 9999 FEW017 28/27 Q1011 NOSIG
cycle: 15

Station Type Date Time Source
WADD TAF 2020/04/05 12:06 UTC NOAA

TAF WADD 051100Z 0512/0612 VRB05KT 9999 SCT017
TEMPO 0512/0515 4000 TSRA FEW015CB BKN015
TEMPO 0523/0601 5000 TSRA FEW015CB BKN015
TEMPO 0606/0610 5000 TSRA FEW015CB BKN015

Example: see airport list